Terminal Aerodrome Forecast
Issued by NWS

Home | Current Version | Previous Version | Text Only | Print | Product List | Glossary On
Versions: 1 2 3 4 5 6 7 8 9 10 11 12 13
000
FTUS45 KFGZ 190539
TAFSEZ
TAF
KSEZ 190539Z 1906/2006 20012G20KT P6SM BKN030
     FM191500 19020G30KT 6SM -SHRA SCT020 OVC030
     FM192000 20020G30KT 5SM -SHSNRA BKN020 OVC025
     FM200100 24009KT P6SM BKN040=

USA.gov is the U.S. government's official web portal to all federal, state and local government web resources and services.